createdAt,value
2023-05-24T00:00:53.356Z,100148.67
2023-05-24T00:05:02.664Z,100145.71
2023-05-24T00:09:32.876Z,100153.61
2023-05-24T00:13:35.888Z,100156.73
2023-05-24T00:17:41.372Z,100169.34
2023-05-24T00:21:45.875Z,100176.27
2023-05-24T00:25:48.661Z,100185.92
2023-05-24T00:29:51.549Z,100175.98
2023-05-24T00:33:54.323Z,100184.04
2023-05-24T00:37:57.283Z,100191.27
2023-05-24T00:42:00.092Z,100194.60
2023-05-24T00:46:18.175Z,100201.29
2023-05-24T00:50:21.960Z,100210.14
2023-05-24T00:54:26.374Z,100219.75
2023-05-24T00:58:32.711Z,100222.46
2023-05-24T01:02:35.621Z,100228.27
2023-05-24T01:07:14.033Z,100228.05
2023-05-24T01:11:46.116Z,100236.28
2023-05-24T01:16:11.280Z,100241.59
2023-05-24T01:20:17.643Z,100247.17
2023-05-24T01:24:53.722Z,100252.69
2023-05-24T01:28:56.575Z,100254.11
2023-05-24T01:33:25.273Z,100263.08
2023-05-24T01:37:28.105Z,100264.23
2023-05-24T01:41:41.465Z,100263.48
2023-05-24T01:46:18.289Z,100269.18
2023-05-24T01:50:27.531Z,100267.48
2023-05-24T01:54:34.231Z,100270.27
2023-05-24T01:58:39.468Z,100275.46
2023-05-24T02:02:42.568Z,100279.67
2023-05-24T02:06:51.555Z,100282.77
2023-05-24T02:10:54.386Z,100289.44
2023-05-24T02:14:57.394Z,100296.56
2023-05-24T02:19:00.198Z,100297.77
2023-05-24T02:23:04.347Z,100296.77
2023-05-24T02:27:08.390Z,100299.48
2023-05-24T02:31:11.224Z,100299.84
2023-05-24T02:35:14.043Z,100303.52
2023-05-24T02:39:17.045Z,100303.45
2023-05-24T02:43:19.961Z,100305.81
2023-05-24T02:47:23.067Z,100306.40
2023-05-24T02:51:26.101Z,100307.81
2023-05-24T02:55:29.272Z,100301.74
2023-05-24T02:59:33.575Z,100304.02
2023-05-24T03:03:36.517Z,100306.42
2023-05-24T03:07:39.304Z,100307.90
2023-05-24T03:11:42.638Z,100313.30
2023-05-24T03:15:45.590Z,100317.11
2023-05-24T03:19:48.486Z,100322.12
2023-05-24T03:23:51.341Z,100324.97
2023-05-24T03:28:05.136Z,100325.14
2023-05-24T03:32:08.049Z,100333.70
2023-05-24T03:36:10.893Z,100338.79
2023-05-24T03:40:13.634Z,100340.05
2023-05-24T03:44:16.916Z,100340.83
2023-05-24T03:48:20.992Z,100342.54
2023-05-24T03:52:24.151Z,100346.92
2023-05-24T03:56:27.229Z,100348.39
2023-05-24T04:00:30.184Z,100343.04
2023-05-24T04:04:33.200Z,100343.07
2023-05-24T04:08:35.982Z,100345.54
2023-05-24T04:12:41.255Z,100351.45
2023-05-24T04:16:45.180Z,100358.13
2023-05-24T04:20:48.124Z,100366.90
2023-05-24T04:24:51.049Z,100368.38
2023-05-24T04:28:54.217Z,100376.50
2023-05-24T04:32:57.665Z,100375.73
2023-05-24T04:37:00.881Z,100385.46
2023-05-24T04:41:03.880Z,100390.51
2023-05-24T04:45:07.279Z,100393.19
2023-05-24T04:49:10.042Z,100399.98
2023-05-24T04:53:13.333Z,100410.02
2023-05-24T04:57:46.081Z,100415.79
2023-05-24T05:01:48.963Z,100418.46
2023-05-24T05:05:51.820Z,100425.63
2023-05-24T05:09:54.548Z,100429.73
2023-05-24T05:13:57.369Z,100431.96
2023-05-24T05:18:00.481Z,100435.77
2023-05-24T05:22:03.445Z,100437.65
2023-05-24T05:26:07.603Z,100439.88
2023-05-24T05:30:10.961Z,100441.39
2023-05-24T05:34:13.811Z,100445.59
2023-05-24T05:38:16.805Z,100449.86
2023-05-24T05:42:19.645Z,100446.89
2023-05-24T05:46:22.509Z,100448.92
2023-05-24T05:50:25.400Z,100459.18
2023-05-24T05:54:28.623Z,100454.81
2023-05-24T05:58:31.436Z,100460.75
2023-05-24T06:02:34.444Z,100460.52
2023-05-24T06:06:37.580Z,100457.11
2023-05-24T06:10:40.611Z,100460.77
2023-05-24T06:14:44.266Z,100462.98
2023-05-24T06:19:01.221Z,100461.73
2023-05-24T06:23:07.916Z,100470.61
2023-05-24T06:27:10.745Z,100477.35
2023-05-24T06:31:13.550Z,100482.98
2023-05-24T06:35:16.847Z,100482.29
2023-05-24T06:39:19.969Z,100488.16
2023-05-24T06:43:29.054Z,100488.29
2023-05-24T06:47:32.106Z,100490.35
2023-05-24T06:51:38.088Z,100493.21
2023-05-24T06:55:40.961Z,100502.63
2023-05-24T06:59:43.735Z,100500.95
2023-05-24T07:03:47.087Z,100514.01
2023-05-24T07:07:49.887Z,100518.98
2023-05-24T07:11:53.225Z,100524.00
2023-05-24T07:15:55.973Z,100533.02
2023-05-24T07:20:01.307Z,100534.21
2023-05-24T07:24:04.367Z,100534.27
2023-05-24T07:28:07.540Z,100531.50
2023-05-24T07:32:10.365Z,100546.67
2023-05-24T07:36:15.887Z,100551.20
2023-05-24T07:40:19.075Z,100558.42
2023-05-24T07:44:22.356Z,100559.59
2023-05-24T07:48:25.171Z,100565.14
2023-05-24T07:52:28.168Z,100568.48
2023-05-24T07:56:32.229Z,100569.20
2023-05-24T08:00:35.992Z,100569.91
2023-05-24T08:04:38.771Z,100569.05
2023-05-24T08:08:42.857Z,100565.96
2023-05-24T08:12:45.777Z,100568.38
2023-05-24T08:16:48.710Z,100572.45
2023-05-24T08:20:53.066Z,100579.86
2023-05-24T08:24:55.918Z,100576.64
2023-05-24T08:28:58.695Z,100580.02
2023-05-24T08:33:01.552Z,100578.77
2023-05-24T08:37:05.148Z,100583.73
2023-05-24T08:41:08.591Z,100586.49
2023-05-24T08:45:13.152Z,100591.74
2023-05-24T08:49:16.460Z,100595.11
2023-05-24T08:53:21.870Z,100592.73
2023-05-24T08:57:27.378Z,100594.54
2023-05-24T09:01:32.290Z,100592.78
2023-05-24T09:05:37.995Z,100597.96
2023-05-24T09:09:50.020Z,100600.20
2023-05-24T09:13:55.736Z,100606.08
2023-05-24T09:17:58.598Z,100605.27
2023-05-24T09:22:02.169Z,100602.64
2023-05-24T09:26:09.810Z,100606.69
2023-05-24T09:30:13.026Z,100613.79
2023-05-24T09:34:19.518Z,100610.71
2023-05-24T09:38:22.431Z,100617.08
2023-05-24T09:42:28.151Z,100614.71
2023-05-24T09:46:38.512Z,100614.00
2023-05-24T09:51:11.839Z,100614.95
2023-05-24T09:55:20.245Z,100609.64
2023-05-24T09:59:24.631Z,100609.02
2023-05-24T10:03:27.594Z,100611.39
2023-05-24T10:07:31.892Z,100614.80
2023-05-24T10:11:38.504Z,100615.42
2023-05-24T10:15:41.364Z,100617.09
2023-05-24T10:19:44.967Z,100609.05
2023-05-24T10:23:51.635Z,100606.55
2023-05-24T10:27:58.332Z,100608.70
2023-05-24T10:32:02.299Z,100608.84
2023-05-24T10:36:09.629Z,100612.91
2023-05-24T10:44:47.726Z,100613.35
2023-05-24T10:49:01.252Z,100613.69
2023-05-24T10:53:18.973Z,100620.09
2023-05-24T10:57:24.558Z,100624.96
2023-05-24T11:01:33.683Z,100621.46
2023-05-24T11:05:57.990Z,100619.94
2023-05-24T11:10:07.232Z,100623.48
2023-05-24T11:14:10.520Z,100619.68
2023-05-24T11:18:14.270Z,100619.08
2023-05-24T11:22:17.890Z,100615.63
2023-05-24T11:26:21.329Z,100605.11
2023-05-24T11:30:28.344Z,100607.98
2023-05-24T11:34:32.273Z,100608.42
2023-05-24T11:38:37.084Z,100610.89
2023-05-24T11:42:39.964Z,100609.42
2023-05-24T11:46:46.684Z,100609.83
2023-05-24T11:51:31.004Z,100608.88
2023-05-24T11:55:33.861Z,100597.77
2023-05-24T11:59:38.100Z,100601.75
2023-05-24T12:03:41.162Z,100604.81
2023-05-24T12:07:48.851Z,100600.25
2023-05-24T12:11:52.770Z,100599.50
2023-05-24T12:15:56.867Z,100603.16
2023-05-24T12:20:02.852Z,100594.43
2023-05-24T12:24:10.658Z,100600.58
2023-05-24T12:28:14.223Z,100595.98
2023-05-24T12:32:17.449Z,100608.75
2023-05-24T12:36:20.500Z,100612.13
2023-05-24T12:40:23.716Z,100612.23
2023-05-24T12:44:28.217Z,100610.30
2023-05-24T12:48:35.656Z,100611.67
2023-05-24T12:52:38.534Z,100609.58
2023-05-24T12:56:41.645Z,100607.55
2023-05-24T13:00:47.828Z,100604.89
2023-05-24T13:04:51.457Z,100606.84
2023-05-24T13:08:55.445Z,100604.52
2023-05-24T13:12:58.389Z,100603.55
2023-05-24T13:17:07.654Z,100601.65
2023-05-24T13:21:12.345Z,100602.40
2023-05-24T13:25:15.702Z,100599.11
2023-05-24T13:29:34.041Z,100596.04
2023-05-24T13:33:39.751Z,100593.75
2023-05-24T13:37:42.765Z,100600.30
2023-05-24T13:41:46.608Z,100598.67
2023-05-24T13:46:18.875Z,100594.77
2023-05-24T13:50:23.788Z,100592.27
2023-05-24T13:54:26.712Z,100593.71
2023-05-24T13:58:29.750Z,100594.10
2023-05-24T14:02:32.798Z,100595.92
2023-05-24T14:06:37.829Z,100597.39
2023-05-24T14:10:48.797Z,100596.50
2023-05-24T14:18:57.585Z,100589.65
2023-05-24T14:23:19.939Z,100590.70
2023-05-24T14:27:22.743Z,100587.19
2023-05-24T14:31:25.649Z,100589.23
2023-05-24T14:35:57.869Z,100593.92
2023-05-24T14:40:00.814Z,100596.35
2023-05-24T14:44:03.853Z,100590.05
2023-05-24T14:48:11.544Z,100590.46
2023-05-24T14:52:15.014Z,100583.72
2023-05-24T14:56:17.851Z,100580.16
2023-05-24T15:00:29.123Z,100580.13
2023-05-24T15:04:32.163Z,100581.10
2023-05-24T15:08:35.292Z,100585.58
2023-05-24T15:12:38.195Z,100589.70
2023-05-24T15:16:41.285Z,100586.34
2023-05-24T15:20:49.477Z,100588.73
2023-05-24T15:24:52.678Z,100585.89
2023-05-24T15:29:25.315Z,100595.02
2023-05-24T15:33:28.129Z,100591.88
2023-05-24T15:37:31.509Z,100588.14
2023-05-24T15:41:37.547Z,100585.98
2023-05-24T15:45:48.266Z,100594.96
2023-05-24T15:49:51.308Z,100594.92
2023-05-24T15:53:58.560Z,100595.84
2023-05-24T15:58:01.397Z,100596.55
2023-05-24T16:02:08.216Z,100596.55
2023-05-24T16:06:11.406Z,100597.58
2023-05-24T16:10:14.283Z,100598.35
2023-05-24T16:14:17.078Z,100601.28
2023-05-24T16:18:49.723Z,100601.16
2023-05-24T16:22:52.988Z,100606.20
2023-05-24T16:26:57.146Z,100604.17
2023-05-24T16:31:02.833Z,100607.17
2023-05-24T16:35:07.361Z,100608.19
2023-05-24T16:39:21.421Z,100613.64
2023-05-24T16:43:24.400Z,100620.67
2023-05-24T16:47:29.590Z,100630.20
2023-05-24T16:51:33.315Z,100630.89
2023-05-24T16:55:36.360Z,100629.32
2023-05-24T16:59:39.228Z,100628.70
2023-05-24T17:03:44.388Z,100629.34
2023-05-24T17:07:47.297Z,100634.80
2023-05-24T17:11:50.990Z,100640.76
2023-05-24T17:16:11.762Z,100641.50
2023-05-24T17:20:14.979Z,100649.66
2023-05-24T17:24:17.858Z,100651.19
2023-05-24T17:28:20.787Z,100649.38
2023-05-24T17:32:34.031Z,100652.99
2023-05-24T17:36:37.540Z,100658.96
2023-05-24T17:40:40.683Z,100663.04
2023-05-24T17:44:45.137Z,100668.59
2023-05-24T17:48:48.031Z,100667.04
2023-05-24T17:52:51.121Z,100671.59
2023-05-24T17:56:54.135Z,100676.13
2023-05-24T18:01:29.107Z,100678.88
2023-05-24T18:05:31.967Z,100686.16
2023-05-24T18:09:34.885Z,100691.55
2023-05-24T18:13:39.181Z,100688.55
2023-05-24T18:17:59.729Z,100693.55
2023-05-24T18:22:52.745Z,100698.83
2023-05-24T18:27:26.483Z,100709.13
2023-05-24T18:31:29.273Z,100716.04
2023-05-24T18:35:32.306Z,100723.59
2023-05-24T18:39:35.681Z,100726.66
2023-05-24T18:43:39.311Z,100730.48
2023-05-24T18:47:42.266Z,100738.52
2023-05-24T18:51:50.368Z,100743.10
2023-05-24T18:55:53.194Z,100751.02
2023-05-24T19:01:11.900Z,100755.95
2023-05-24T19:05:14.942Z,100765.09
2023-05-24T19:09:17.762Z,100769.58
2023-05-24T19:13:20.589Z,100774.70
2023-05-24T19:17:24.964Z,100776.56
2023-05-24T19:21:28.150Z,100779.05
2023-05-24T19:25:31.377Z,100787.71
2023-05-24T19:29:37.114Z,100785.39
2023-05-24T19:33:51.966Z,100791.44
2023-05-24T19:38:22.471Z,100790.84
2023-05-24T19:42:25.530Z,100788.44
2023-05-24T19:46:32.017Z,100796.80
2023-05-24T19:50:34.906Z,100800.06
2023-05-24T19:55:03.626Z,100800.70
2023-05-24T19:59:07.504Z,100803.17
2023-05-24T20:03:12.997Z,100799.11
2023-05-24T20:07:15.934Z,100802.24
2023-05-24T20:11:18.831Z,100797.98
2023-05-24T20:15:27.733Z,100793.04
2023-05-24T20:19:30.640Z,100798.56
2023-05-24T20:23:33.537Z,100803.48
2023-05-24T20:27:36.479Z,100807.77
2023-05-24T20:31:39.321Z,100808.46
2023-05-24T20:35:42.916Z,100811.41
2023-05-24T20:39:46.141Z,100818.20
2023-05-24T20:43:51.479Z,100822.14
2023-05-24T20:47:54.790Z,100821.58
2023-05-24T20:51:57.596Z,100827.44
2023-05-24T20:56:01.920Z,100830.23
2023-05-24T21:00:05.909Z,100834.31
2023-05-24T21:04:12.219Z,100843.08
2023-05-24T21:08:15.113Z,100844.89
2023-05-24T21:12:17.937Z,100845.81
2023-05-24T21:16:20.856Z,100846.50
2023-05-24T21:20:23.922Z,100854.19
2023-05-24T21:24:26.921Z,100857.91
2023-05-24T21:28:29.656Z,100867.98
2023-05-24T21:32:32.697Z,100871.74
2023-05-24T21:36:36.418Z,100873.55
2023-05-24T21:40:39.280Z,100874.57
2023-05-24T21:44:42.170Z,100878.51
2023-05-24T21:48:44.972Z,100883.58
2023-05-24T21:52:47.700Z,100889.21
2023-05-24T21:57:15.925Z,100888.78
2023-05-24T22:01:18.768Z,100890.88
2023-05-24T22:05:21.588Z,100897.34
2023-05-24T22:09:24.377Z,100899.17
2023-05-24T22:13:27.174Z,100900.44
2023-05-24T22:17:32.822Z,100901.85
2023-05-24T22:21:36.947Z,100900.92
2023-05-24T22:25:40.096Z,100903.10
2023-05-24T22:29:43.941Z,100903.13
2023-05-24T22:33:48.327Z,100906.02
2023-05-24T22:38:42.004Z,100905.28
2023-05-24T22:42:44.790Z,100901.70
2023-05-24T22:46:49.878Z,100894.56
2023-05-24T22:50:57.198Z,100895.61
2023-05-24T22:55:27.273Z,100887.86
2023-05-24T22:59:32.411Z,100889.13
2023-05-24T23:03:37.554Z,100891.89
2023-05-24T23:07:40.392Z,100887.16
2023-05-24T23:11:44.500Z,100887.21
2023-05-24T23:15:48.534Z,100886.10
2023-05-24T23:19:51.426Z,100893.56
2023-05-24T23:23:56.919Z,100892.73
2023-05-24T23:28:00.905Z,100891.14
2023-05-24T23:32:03.966Z,100888.41
2023-05-24T23:36:07.051Z,100884.80
2023-05-24T23:40:11.528Z,100891.84
2023-05-24T23:44:14.357Z,100895.73
2023-05-24T23:48:17.273Z,100897.77
2023-05-24T23:52:20.069Z,100895.67
2023-05-24T23:56:23.329Z,100896.30
